Time;durP1;ratioP1;P1;durP2;ratioP2;P2;SDS_P1;SDS_P2;PMS_P1;PMS_P2;Temp;Humidity;BMP_temperature;BMP_pressure;BME280_temperature;BME280_humidity;BME280_pressure;Samples;Min_cycle;Max_cycle;Signal;HPM_P1;HPM_P2
2022/09/28 00:01:42;;;;;;;0.40;0.30;;;8.40;99.90;;;;;;5115858;28;20954;-75
2022/09/28 00:04:11;;;;;;;0.30;0.30;;;8.40;99.90;;;;;;5116032;28;20463;-75
2022/09/28 00:06:38;;;;;;;0.30;0.30;;;8.40;99.90;;;;;;5116073;28;20443;-75
2022/09/28 00:09:04;;;;;;;0.30;0.30;;;8.40;99.90;;;;;;5115995;28;20439;-75
2022/09/28 00:11:32;;;;;;;0.40;0.30;;;8.40;99.90;;;;;;5115927;28;20462;-75
2022/09/28 00:14:02;;;;;;;0.50;0.30;;;8.40;99.90;;;;;;5115794;28;20487;-75
2022/09/28 00:16:31;;;;;;;0.30;0.20;;;8.40;99.90;;;;;;5115795;28;20438;-75
2022/09/28 00:18:58;;;;;;;0.37;0.37;;;8.40;99.90;;;;;;5115840;28;20513;-75
2022/09/28 00:21:28;;;;;;;0.30;0.20;;;8.40;99.90;;;;;;5115798;28;20508;-75
2022/09/28 00:26:43;;;;;;;0.30;0.30;;;8.50;99.90;;;;;;5115663;28;20402;-75
2022/09/28 00:29:19;;;;;;;0.30;0.30;;;8.50;99.90;;;;;;5115254;28;20490;-75
2022/09/28 00:31:46;;;;;;;0.35;0.35;;;8.50;99.90;;;;;;5115613;28;20205;-75
2022/09/28 00:34:13;;;;;;;0.30;0.20;;;8.50;99.90;;;;;;5115387;28;20311;-75
2022/09/28 00:36:44;;;;;;;0.70;0.30;;;8.60;99.90;;;;;;5115489;28;20446;-75
2022/09/28 00:39:13;;;;;;;0.30;0.20;;;8.60;99.90;;;;;;5116041;28;20427;-75
2022/09/28 00:41:40;;;;;;;0.40;0.30;;;8.60;99.90;;;;;;5115382;28;20502;-75
2022/09/28 00:44:35;;;;;;;0.47;0.33;;;8.50;99.90;;;;;;5115276;28;20459;-76
2022/09/28 00:47:07;;;;;;;0.30;0.30;;;8.60;99.90;;;;;;5115269;28;20445;-76
2022/09/28 00:49:40;;;;;;;0.40;0.37;;;8.60;99.90;;;;;;5115265;28;20439;-75
2022/09/28 00:52:13;;;;;;;0.57;0.30;;;8.60;99.90;;;;;;5115239;28;20430;-76
2022/09/28 00:54:42;;;;;;;0.60;0.30;;;8.60;99.90;;;;;;5115018;28;20491;-75
2022/09/28 00:57:09;;;;;;;0.30;0.30;;;8.60;99.90;;;;;;5115089;28;20443;-75
2022/09/28 00:59:36;;;;;;;0.30;0.30;;;8.60;99.90;;;;;;5115254;28;20435;-76
2022/09/28 01:02:03;;;;;;;0.30;0.20;;;8.60;99.90;;;;;;5114386;28;20443;-75
2022/09/28 01:04:31;;;;;;;0.30;0.20;;;8.70;99.90;;;;;;5114860;28;20471;-76
2022/09/28 01:06:58;;;;;;;0.30;0.30;;;8.70;99.90;;;;;;5114891;28;20201;-76
2022/09/28 01:09:28;;;;;;;0.30;0.20;;;8.60;99.90;;;;;;5114842;28;20787;-76
2022/09/28 01:11:55;;;;;;;0.30;0.30;;;8.70;99.90;;;;;;5114749;28;20504;-76
2022/09/28 01:14:24;;;;;;;0.30;0.27;;;8.70;99.90;;;;;;5114281;28;20479;-76
2022/09/28 01:17:00;;;;;;;0.30;0.30;;;8.60;99.90;;;;;;5114389;28;20833;-76
2022/09/28 01:20:23;;;;;;;0.40;0.30;;;8.60;99.90;;;;;;5114672;28;20484;-76
2022/09/28 01:23:31;;;;;;;0.30;0.30;;;8.70;99.90;;;;;;5012085;28;20424;-76
2022/09/28 01:26:26;;;;;;;0.60;0.30;;;8.70;99.90;;;;;;5114538;28;20636;-76
2022/09/28 01:28:59;;;;;;;0.30;0.30;;;8.70;99.90;;;;;;5114076;28;20482;-75
2022/09/28 01:31:29;;;;;;;1.17;0.30;;;8.70;99.90;;;;;;5114461;28;20434;-75
2022/09/28 01:34:00;;;;;;;0.30;0.20;;;8.70;99.90;;;;;;5114501;28;20482;-75
2022/09/28 01:36:31;;;;;;;0.30;0.20;;;8.70;99.90;;;;;;5114377;28;20427;-76
2022/09/28 01:39:04;;;;;;;0.30;0.30;;;8.70;99.90;;;;;;5114570;28;20430;-76
2022/09/28 01:41:35;;;;;;;0.30;0.20;;;8.70;99.90;;;;;;5113989;28;20657;-76
2022/09/28 01:44:04;;;;;;;0.30;0.30;;;8.70;99.90;;;;;;5113862;28;20478;-76
2022/09/28 01:46:35;;;;;;;0.50;0.30;;;8.70;99.90;;;;;;5114198;28;20492;-76
2022/09/28 01:49:07;;;;;;;0.30;0.30;;;8.70;99.90;;;;;;5114320;28;20431;-76
2022/09/28 01:51:39;;;;;;;0.30;0.30;;;8.80;99.90;;;;;;5114147;28;20449;-75
2022/09/28 01:54:11;;;;;;;0.30;0.20;;;8.70;99.90;;;;;;5114032;28;20494;-75
2022/09/28 01:56:44;;;;;;;0.30;0.30;;;8.70;99.90;;;;;;5114060;28;20825;-76
2022/09/28 01:59:15;;;;;;;0.30;0.20;;;8.80;99.90;;;;;;5114051;28;20431;-75
2022/09/28 02:01:47;;;;;;;0.40;0.30;;;8.80;99.90;;;;;;5113712;28;20431;-75
2022/09/28 02:04:18;;;;;;;0.30;0.27;;;8.80;99.90;;;;;;5114139;28;20455;-75
2022/09/28 02:06:49;;;;;;;0.30;0.30;;;8.80;99.90;;;;;;5114496;28;20430;-75
2022/09/28 02:09:20;;;;;;;0.30;0.30;;;8.80;99.90;;;;;;5113608;28;20424;-75
2022/09/28 02:11:53;;;;;;;0.30;0.30;;;8.80;99.90;;;;;;5113895;28;20430;-75
2022/09/28 02:14:21;;;;;;;0.30;0.30;;;8.80;99.90;;;;;;5112824;28;20510;-75
2022/09/28 02:16:50;;;;;;;0.30;0.20;;;8.80;99.90;;;;;;5113505;28;20450;-75
2022/09/28 02:19:20;;;;;;;0.50;0.50;;;8.70;99.90;;;;;;5113724;28;20442;-75
2022/09/28 02:21:53;;;;;;;0.30;0.30;;;8.80;99.90;;;;;;5113456;28;20965;-75
2022/09/28 02:24:24;;;;;;;0.30;0.30;;;8.80;99.90;;;;;;5113716;28;20470;-75
2022/09/28 02:26:53;;;;;;;0.30;0.30;;;8.80;99.90;;;;;;5113738;28;20454;-75
2022/09/28 02:29:20;;;;;;;0.30;0.20;;;8.80;99.90;;;;;;5113269;28;20479;-75
2022/09/28 02:31:47;;;;;;;0.30;0.30;;;8.80;99.90;;;;;;5113653;28;20443;-75
2022/09/28 02:34:14;;;;;;;0.30;0.30;;;8.80;99.90;;;;;;5113509;28;20487;-75
2022/09/28 02:36:40;;;;;;;1.53;0.40;;;8.80;99.90;;;;;;5113681;28;20439;-76
2022/09/28 02:39:13;;;;;;;0.30;0.30;;;8.80;99.90;;;;;;5113588;28;20443;-75
2022/09/28 02:41:51;;;;;;;3.60;0.40;;;8.90;99.90;;;;;;5113375;28;20448;-76
2022/09/28 02:44:34;;;;;;;0.30;0.30;;;8.90;99.90;;;;;;5113228;28;20722;-75
2022/09/28 02:47:10;;;;;;;0.30;0.30;;;8.90;99.90;;;;;;5113820;28;20434;-76
2022/09/28 02:49:44;;;;;;;0.30;0.20;;;8.90;99.90;;;;;;5113253;28;20197;-75
2022/09/28 02:52:29;;;;;;;0.30;0.20;;;8.90;99.90;;;;;;5113542;28;20432;-75
2022/09/28 02:55:26;;;;;;;0.30;0.20;;;9.00;99.90;;;;;;5113335;28;20490;-76
2022/09/28 02:58:13;;;;;;;0.40;0.30;;;9.00;99.90;;;;;;5104908;28;20300;-76
2022/09/28 03:00:51;;;;;;;0.40;0.30;;;9.00;99.90;;;;;;5113126;28;20788;-76
2022/09/28 03:03:21;;;;;;;0.30;0.30;;;9.10;99.90;;;;;;5113040;28;20973;-75
2022/09/28 03:05:57;;;;;;;0.95;0.50;;;9.00;99.90;;;;;;5113772;28;20439;-76
2022/09/28 03:08:29;;;;;;;1.40;0.50;;;9.00;99.90;;;;;;5113371;28;20280;-76
2022/09/28 03:11:00;;;;;;;0.40;0.30;;;9.00;99.90;;;;;;5113355;28;20446;-76
2022/09/28 03:13:28;;;;;;;0.40;0.30;;;9.00;99.90;;;;;;5112865;28;20483;-75
2022/09/28 03:16:08;;;;;;;0.30;0.30;;;9.00;99.90;;;;;;5112964;28;20687;-76
2022/09/28 03:18:34;;;;;;;0.50;0.47;;;9.00;99.90;;;;;;5113263;28;20466;-75
2022/09/28 03:21:03;;;;;;;0.40;0.30;;;9.00;99.90;;;;;;5113287;28;20522;-75
2022/09/28 03:23:30;;;;;;;0.50;0.40;;;9.00;99.90;;;;;;5113117;28;20473;-75
2022/09/28 03:25:57;;;;;;;0.30;0.30;;;9.00;99.90;;;;;;5115639;28;20447;-75
2022/09/28 03:28:24;;;;;;;0.30;0.30;;;9.00;99.90;;;;;;5116460;28;20482;-75
2022/09/28 03:30:51;;;;;;;0.30;0.30;;;9.00;99.90;;;;;;5116853;28;20474;-75
2022/09/28 03:33:19;;;;;;;0.30;0.30;;;8.90;99.90;;;;;;5116603;28;20474;-75
2022/09/28 03:35:47;;;;;;;2.00;0.50;;;9.00;99.90;;;;;;5116403;28;20434;-75
2022/09/28 03:38:14;;;;;;;0.40;0.30;;;8.90;99.90;;;;;;5116523;28;20500;-75
2022/09/28 03:40:41;;;;;;;0.40;0.30;;;8.90;99.90;;;;;;5116542;28;20813;-75
2022/09/28 03:43:08;;;;;;;1.00;0.30;;;9.00;99.90;;;;;;5116462;28;20454;-75
2022/09/28 03:45:34;;;;;;;0.30;0.30;;;9.00;99.90;;;;;;5116477;28;20447;-76
2022/09/28 03:48:01;;;;;;;0.40;0.30;;;9.00;99.90;;;;;;5116442;28;20451;-76
2022/09/28 03:50:29;;;;;;;0.30;0.30;;;9.00;99.90;;;;;;5116115;28;20435;-76
2022/09/28 03:53:02;;;;;;;0.30;0.30;;;9.00;99.90;;;;;;5116278;28;20209;-75
2022/09/28 03:55:29;;;;;;;0.30;0.20;;;9.00;99.90;;;;;;5115974;28;20796;-75
2022/09/28 03:57:55;;;;;;;0.30;0.20;;;9.00;99.90;;;;;;5116428;28;20447;-76
2022/09/28 04:00:22;;;;;;;0.30;0.30;;;8.90;99.90;;;;;;5115976;28;20431;-76
2022/09/28 04:02:49;;;;;;;0.40;0.30;;;8.90;99.90;;;;;;5116187;28;20494;-76
2022/09/28 04:05:16;;;;;;;0.77;0.77;;;9.00;99.90;;;;;;5115938;28;20472;-75
2022/09/28 04:07:44;;;;;;;0.30;0.20;;;9.00;99.90;;;;;;5116091;28;20450;-75
2022/09/28 04:10:11;;;;;;;2.03;0.33;;;9.00;99.90;;;;;;5116028;28;20451;-76
2022/09/28 04:12:37;;;;;;;0.30;0.30;;;9.00;99.90;;;;;;5115620;28;20968;-76
2022/09/28 04:15:05;;;;;;;0.40;0.30;;;9.00;99.90;;;;;;5115507;28;20512;-76
2022/09/28 04:17:33;;;;;;;0.30;0.30;;;9.00;99.90;;;;;;5115909;28;20451;-75
2022/09/28 04:20:01;;;;;;;0.30;0.23;;;9.00;99.90;;;;;;5115817;28;20965;-75
2022/09/28 04:22:28;;;;;;;0.30;0.30;;;9.00;99.90;;;;;;5115836;28;20466;-75
2022/09/28 04:24:56;;;;;;;0.30;0.20;;;9.00;99.90;;;;;;5115891;28;20463;-75
2022/09/28 04:30:09;;;;;;;0.30;0.30;;;9.10;99.90;;;;;;5116076;28;20477;-75
2022/09/28 04:32:35;;;;;;;0.30;0.30;;;9.10;99.90;;;;;;5115245;28;20954;-75
2022/09/28 04:35:02;;;;;;;0.33;0.30;;;9.20;99.90;;;;;;5115133;28;20479;-77
2022/09/28 04:37:30;;;;;;;0.30;0.30;;;9.20;99.90;;;;;;5114287;28;20431;-78
2022/09/28 04:39:58;;;;;;;0.30;0.30;;;9.20;99.90;;;;;;5115597;28;20573;-78
2022/09/28 04:42:24;;;;;;;0.30;0.20;;;9.10;99.90;;;;;;5115103;28;20431;-78
2022/09/28 04:44:51;;;;;;;0.30;0.30;;;9.10;99.90;;;;;;5115251;28;20470;-77
2022/09/28 04:47:18;;;;;;;0.30;0.20;;;9.00;99.90;;;;;;5115314;28;20208;-77
2022/09/28 04:49:44;;;;;;;0.30;0.20;;;9.00;99.90;;;;;;5115033;28;20432;-77
2022/09/28 04:52:11;;;;;;;0.30;0.30;;;9.00;99.90;;;;;;5115217;28;20450;-77
2022/09/28 04:54:38;;;;;;;0.30;0.20;;;9.00;99.90;;;;;;5114707;28;21087;-77
2022/09/28 04:57:06;;;;;;;0.30;0.30;;;8.90;99.90;;;;;;5115106;28;20451;-77
2022/09/28 04:59:33;;;;;;;0.30;0.20;;;8.90;99.90;;;;;;5115096;28;20443;-77
2022/09/28 05:02:00;;;;;;;0.30;0.30;;;8.90;99.90;;;;;;5115032;28;20500;-78
2022/09/28 05:04:27;;;;;;;0.30;0.30;;;8.90;99.90;;;;;;5114891;28;20486;-78
2022/09/28 05:06:53;;;;;;;0.30;0.20;;;8.90;99.90;;;;;;5114883;28;20451;-77
2022/09/28 05:09:20;;;;;;;0.30;0.20;;;8.90;99.90;;;;;;5114572;28;20438;-77
2022/09/28 05:11:49;;;;;;;0.30;0.27;;;8.90;99.90;;;;;;5114803;28;20450;-78
2022/09/28 05:14:18;;;;;;;0.40;0.30;;;8.90;99.90;;;;;;5114497;28;20479;-78
2022/09/28 05:16:45;;;;;;;0.30;0.30;;;8.90;99.90;;;;;;5114433;28;20541;-78
2022/09/28 05:19:12;;;;;;;0.93;0.30;;;8.90;99.90;;;;;;5114812;28;20455;-77
2022/09/28 05:21:39;;;;;;;0.40;0.30;;;8.90;99.90;;;;;;5114634;28;20453;-78
2022/09/28 05:24:07;;;;;;;0.30;0.20;;;8.90;99.90;;;;;;5114561;28;20459;-78
2022/09/28 05:26:34;;;;;;;0.60;0.50;;;8.90;99.90;;;;;;5114524;28;20542;-78
2022/09/28 05:29:01;;;;;;;0.30;0.30;;;8.90;99.90;;;;;;5114032;28;20481;-77
2022/09/28 05:31:29;;;;;;;0.30;0.30;;;8.90;99.90;;;;;;5114681;28;20450;-77
2022/09/28 05:33:56;;;;;;;0.40;0.30;;;8.90;99.90;;;;;;5114261;28;20471;-79
2022/09/28 05:36:25;;;;;;;0.30;0.20;;;8.90;99.90;;;;;;5114390;28;20811;-77
2022/09/28 05:38:52;;;;;;;0.30;0.30;;;8.90;99.90;;;;;;5114068;28;20942;-77
2022/09/28 05:41:19;;;;;;;0.30;0.20;;;8.90;99.90;;;;;;5113989;28;20942;-78
2022/09/28 05:43:45;;;;;;;0.30;0.30;;;8.90;99.90;;;;;;5114194;28;20221;-78
2022/09/28 05:46:13;;;;;;;0.30;0.20;;;8.90;99.90;;;;;;5114321;28;20449;-78
2022/09/28 05:48:41;;;;;;;0.40;0.40;;;9.00;99.90;;;;;;5113991;28;20485;-79
2022/09/28 05:51:09;;;;;;;0.37;0.30;;;9.00;99.90;;;;;;5114404;28;20442;-78
2022/09/28 05:53:35;;;;;;;0.30;0.20;;;9.00;99.90;;;;;;5113708;28;20884;-78
2022/09/28 05:56:02;;;;;;;0.40;0.40;;;9.00;99.90;;;;;;5113972;28;20474;-78
2022/09/28 05:58:29;;;;;;;0.30;0.20;;;9.00;99.90;;;;;;5114038;28;20443;-78
2022/09/28 06:00:57;;;;;;;0.30;0.30;;;9.00;99.90;;;;;;5113762;28;20463;-78
2022/09/28 06:03:24;;;;;;;0.30;0.30;;;9.00;99.90;;;;;;5113976;28;20228;-78
2022/09/28 06:05:52;;;;;;;0.30;0.30;;;9.00;99.90;;;;;;5113925;28;20871;-78
2022/09/28 06:08:19;;;;;;;0.33;0.30;;;9.00;99.90;;;;;;5114185;28;20447;-79
2022/09/28 06:10:46;;;;;;;0.30;0.30;;;9.00;99.90;;;;;;5113919;28;20450;-79
2022/09/28 06:13:13;;;;;;;0.93;0.33;;;9.00;99.90;;;;;;5113848;28;20450;-79
2022/09/28 06:15:42;;;;;;;0.30;0.30;;;9.00;99.90;;;;;;5113798;28;20475;-79
2022/09/28 06:18:12;;;;;;;0.30;0.30;;;9.00;99.90;;;;;;5114532;28;20443;-79
2022/09/28 06:20:40;;;;;;;0.30;0.20;;;9.00;99.90;;;;;;5114119;28;20527;-79
2022/09/28 06:23:09;;;;;;;0.30;0.20;;;9.00;99.90;;;;;;5113380;28;20447;-79
2022/09/28 06:25:36;;;;;;;0.30;0.20;;;9.00;99.90;;;;;;5113483;28;20442;-79
2022/09/28 06:28:05;;;;;;;0.30;0.20;;;9.00;99.90;;;;;;5113296;28;20474;-79
2022/09/28 06:30:33;;;;;;;0.30;0.27;;;9.00;99.90;;;;;;5113977;28;20208;-79
2022/09/28 06:33:02;;;;;;;0.30;0.30;;;9.00;99.90;;;;;;5113328;28;20446;-79
2022/09/28 06:35:30;;;;;;;0.30;0.20;;;9.00;99.90;;;;;;5113546;28;21024;-79
2022/09/28 06:37:57;;;;;;;0.30;0.20;;;9.10;99.90;;;;;;5113652;28;20447;-78
2022/09/28 06:40:26;;;;;;;0.30;0.30;;;9.10;99.90;;;;;;5113656;28;20451;-78
2022/09/28 06:42:56;;;;;;;0.40;0.30;;;9.10;99.90;;;;;;5113598;28;20466;-78
2022/09/28 06:45:24;;;;;;;0.30;0.20;;;9.20;99.90;;;;;;5113269;28;20439;-78
2022/09/28 06:47:55;;;;;;;0.30;0.20;;;9.20;99.90;;;;;;5113595;28;20446;-77
2022/09/28 06:50:22;;;;;;;0.30;0.20;;;9.20;99.90;;;;;;5113663;28;20511;-77
2022/09/28 06:52:51;;;;;;;0.30;0.30;;;9.20;99.90;;;;;;5113464;28;20470;-77
2022/09/28 06:55:18;;;;;;;0.30;0.20;;;9.20;99.90;;;;;;5113303;28;20486;-78
2022/09/28 06:57:46;;;;;;;0.30;0.20;;;9.30;99.90;;;;;;5113166;28;20217;-78
2022/09/28 07:00:14;;;;;;;0.30;0.30;;;9.30;99.90;;;;;;5114840;28;20451;-77
2022/09/28 07:02:41;;;;;;;0.30;0.30;;;9.40;99.90;;;;;;5117389;28;20451;-77
2022/09/28 07:05:12;;;;;;;0.30;0.30;;;9.40;99.90;;;;;;5117301;28;20488;-77
2022/09/28 07:07:39;;;;;;;0.30;0.20;;;9.40;99.90;;;;;;5117527;28;20439;-78
2022/09/28 07:10:07;;;;;;;0.30;0.20;;;9.50;99.90;;;;;;5117215;28;20496;-75
2022/09/28 07:12:35;;;;;;;0.30;0.20;;;9.50;99.90;;;;;;5117185;28;20454;-76
2022/09/28 07:15:03;;;;;;;0.40;0.30;;;9.50;99.90;;;;;;5116748;28;20989;-76
2022/09/28 07:17:33;;;;;;;0.30;0.30;;;9.60;99.90;;;;;;5117068;28;20451;-76
2022/09/28 07:20:00;;;;;;;0.40;0.30;;;9.60;99.90;;;;;;5117041;28;20453;-76
2022/09/28 07:22:26;;;;;;;0.30;0.20;;;9.60;99.90;;;;;;5116656;28;20964;-76
2022/09/28 07:24:53;;;;;;;0.30;0.20;;;9.70;99.90;;;;;;5116582;28;20473;-75
2022/09/28 07:27:20;;;;;;;0.60;0.33;;;9.70;99.90;;;;;;5116665;28;20197;-76
2022/09/28 07:29:47;;;;;;;0.97;0.30;;;9.70;99.90;;;;;;5116554;28;20804;-76
2022/09/28 07:32:15;;;;;;;0.30;0.20;;;9.70;99.90;;;;;;5116809;28;20458;-77
2022/09/28 07:34:43;;;;;;;0.30;0.20;;;9.60;99.90;;;;;;5116632;28;20477;-77
2022/09/28 07:37:11;;;;;;;0.77;0.30;;;9.50;99.90;;;;;;5116659;28;20765;-78
2022/09/28 07:42:18;;;;;;;0.40;0.30;;;9.40;99.90;;;;;;5115346;28;20427;-77
2022/09/28 07:44:45;;;;;;;0.30;0.20;;;9.40;99.90;;;;;;5116712;28;20470;-77
2022/09/28 07:47:12;;;;;;;0.30;0.30;;;9.40;99.90;;;;;;5116352;28;20680;-77
2022/09/28 07:49:41;;;;;;;0.30;0.20;;;9.40;99.90;;;;;;5116513;28;20431;-76
2022/09/28 07:52:07;;;;;;;0.40;0.38;;;9.30;99.90;;;;;;5116398;28;20820;-77
2022/09/28 07:54:35;;;;;;;0.93;0.40;;;9.30;99.90;;;;;;5115961;28;20753;-77
2022/09/28 07:57:01;;;;;;;0.40;0.40;;;9.30;99.90;;;;;;5116499;28;20462;-78
2022/09/28 07:59:29;;;;;;;0.30;0.30;;;9.30;99.90;;;;;;5116262;28;20443;-78
2022/09/28 08:01:57;;;;;;;0.30;0.30;;;9.30;99.90;;;;;;5115954;28;21025;-78
2022/09/28 08:04:24;;;;;;;0.30;0.20;;;9.30;99.90;;;;;;5115866;28;20953;-78
2022/09/28 08:06:53;;;;;;;1.03;0.40;;;9.30;99.90;;;;;;5116266;28;20444;-77
2022/09/28 08:09:19;;;;;;;0.40;0.40;;;9.40;99.90;;;;;;5116096;28;20451;-77
2022/09/28 08:11:46;;;;;;;0.30;0.20;;;9.40;99.90;;;;;;5116027;28;20447;-77
2022/09/28 08:14:13;;;;;;;0.30;0.20;;;9.50;99.90;;;;;;5115655;28;20966;-77
2022/09/28 08:16:42;;;;;;;0.30;0.27;;;9.60;99.90;;;;;;5115601;28;20913;-76
2022/09/28 08:19:09;;;;;;;0.40;0.40;;;9.70;99.90;;;;;;5115888;28;20448;-76
2022/09/28 08:21:46;;;;;;;0.30;0.30;;;9.70;99.90;;;;;;5115919;28;20435;-76
2022/09/28 08:24:16;;;;;;;0.67;0.30;;;9.80;99.90;;;;;;5115482;28;20546;-81
2022/09/28 08:26:43;;;;;;;0.40;0.40;;;9.80;99.90;;;;;;5115735;28;20446;-76
2022/09/28 08:29:11;;;;;;;0.40;0.30;;;9.80;99.90;;;;;;5115493;28;20483;-76
2022/09/28 08:31:38;;;;;;;0.40;0.30;;;9.80;99.90;;;;;;5115945;28;20443;-76
2022/09/28 08:34:05;;;;;;;0.30;0.30;;;9.80;99.90;;;;;;5115210;28;20974;-76
2022/09/28 08:36:33;;;;;;;0.97;0.60;;;9.80;99.90;;;;;;5115477;28;20479;-76
2022/09/28 08:39:00;;;;;;;0.40;0.35;;;9.90;99.90;;;;;;5115647;28;20435;-76
2022/09/28 08:41:41;;;;;;;0.40;0.30;;;10.00;99.90;;;;;;5115524;28;20186;-76
2022/09/28 08:44:22;;;;;;;0.50;0.30;;;10.10;99.90;;;;;;5115417;28;20466;-74
2022/09/28 08:46:53;;;;;;;0.40;0.40;;;10.10;99.90;;;;;;5115440;28;20437;-75
2022/09/28 08:49:26;;;;;;;0.30;0.30;;;10.20;99.90;;;;;;5115336;28;20434;-75
2022/09/28 08:51:57;;;;;;;0.30;0.20;;;10.20;99.90;;;;;;5115302;28;20431;-80
2022/09/28 08:54:31;;;;;;;0.40;0.37;;;10.30;99.90;;;;;;5115170;28;20537;-75
2022/09/28 08:57:03;;;;;;;2.77;0.40;;;10.30;99.90;;;;;;5114769;28;20969;-75
2022/09/28 08:59:46;;;;;;;0.37;0.33;;;10.30;99.90;;;;;;5115126;28;20526;-75
2022/09/28 09:02:17;;;;;;;0.53;0.53;;;10.40;99.90;;;;;;5115264;28;20435;-75
2022/09/28 09:04:43;;;;;;;0.40;0.35;;;10.40;99.90;;;;;;5115000;28;20467;-75
2022/09/28 09:07:30;;;;;;;0.37;0.30;;;10.40;99.90;;;;;;5115009;28;20216;-78
2022/09/28 09:10:07;;;;;;;7.30;0.50;;;10.50;99.90;;;;;;5114578;28;20953;-75
2022/09/28 09:12:43;;;;;;;0.40;0.40;;;10.50;99.90;;;;;;5114627;28;20819;-74
2022/09/28 09:15:21;;;;;;;0.50;0.30;;;10.50;99.90;;;;;;5115242;28;20494;-75
2022/09/28 09:18:06;;;;;;;0.40;0.30;;;10.60;99.90;;;;;;5114779;28;20239;-75
2022/09/28 09:20:40;;;;;;;0.50;0.50;;;10.70;99.90;;;;;;5114753;28;20428;-75
2022/09/28 09:23:14;;;;;;;0.97;0.40;;;10.60;99.90;;;;;;5114207;28;20431;-74
2022/09/28 09:25:44;;;;;;;0.40;0.30;;;10.60;99.90;;;;;;5114882;28;20807;-75
2022/09/28 09:28:32;;;;;;;0.40;0.40;;;10.70;99.90;;;;;;5114232;28;20477;-75
2022/09/28 09:31:08;;;;;;;0.65;0.30;;;10.80;99.90;;;;;;5114536;28;20185;-74
2022/09/28 09:33:57;;;;;;;0.40;0.30;;;10.90;99.90;;;;;;5114422;28;20279;-75
2022/09/28 09:36:38;;;;;;;1.07;0.33;;;11.00;99.90;;;;;;5114387;28;20470;-74
2022/09/28 09:39:22;;;;;;;0.40;0.30;;;11.10;99.90;;;;;;5114413;28;20434;-74
2022/09/28 09:42:07;;;;;;;0.30;0.30;;;11.20;99.90;;;;;;5114331;28;20432;-75
2022/09/28 09:44:52;;;;;;;0.93;0.30;;;11.30;99.90;;;;;;5113873;28;20466;-75
2022/09/28 09:47:22;;;;;;;0.40;0.40;;;11.30;99.90;;;;;;5114258;28;20438;-74
2022/09/28 09:49:54;;;;;;;0.30;0.30;;;11.40;99.90;;;;;;5113921;28;20934;-74
2022/09/28 09:52:25;;;;;;;0.40;0.40;;;11.40;99.90;;;;;;5114183;28;20466;-74
2022/09/28 09:54:55;;;;;;;0.30;0.30;;;11.50;99.90;;;;;;5114138;28;20470;-74
2022/09/28 09:57:26;;;;;;;0.40;0.30;;;11.50;99.90;;;;;;5114281;28;20463;-74
2022/09/28 09:59:56;;;;;;;0.40;0.30;;;11.50;99.90;;;;;;5114096;28;20435;-74
2022/09/28 10:02:25;;;;;;;0.40;0.40;;;11.60;99.90;;;;;;5113944;28;20431;-74
2022/09/28 10:04:55;;;;;;;1.43;0.40;;;11.60;99.90;;;;;;5113980;28;20462;-74
2022/09/28 10:07:25;;;;;;;0.40;0.40;;;11.60;99.90;;;;;;5114033;28;20431;-75
2022/09/28 10:09:57;;;;;;;0.40;0.30;;;11.60;99.90;;;;;;5113912;28;20442;-74
2022/09/28 10:12:25;;;;;;;0.40;0.40;;;11.60;99.90;;;;;;5113968;28;20435;-75
2022/09/28 10:14:54;;;;;;;0.33;0.30;;;11.70;99.90;;;;;;5113807;28;20826;-74
2022/09/28 10:17:26;;;;;;;0.40;0.30;;;11.70;99.90;;;;;;5113774;28;20484;-74
2022/09/28 10:19:55;;;;;;;0.50;0.40;;;11.70;99.90;;;;;;5113894;28;20480;-74
2022/09/28 10:22:25;;;;;;;0.40;0.30;;;11.70;99.90;;;;;;5113489;28;20450;-76
2022/09/28 10:24:56;;;;;;;0.67;0.53;;;11.60;99.90;;;;;;5113704;28;20463;-74
2022/09/28 10:27:26;;;;;;;0.50;0.30;;;11.60;99.90;;;;;;5113566;28;20432;-74
2022/09/28 10:29:55;;;;;;;0.30;0.30;;;11.70;99.90;;;;;;5113779;28;20431;-74
2022/09/28 10:32:25;;;;;;;0.40;0.40;;;11.80;99.90;;;;;;5113681;28;20450;-74
2022/09/28 10:34:54;;;;;;;0.40;0.30;;;11.80;99.90;;;;;;5114582;28;20463;-74
2022/09/28 10:37:22;;;;;;;0.40;0.30;;;11.80;99.90;;;;;;5117589;28;21027;-74
2022/09/28 10:39:52;;;;;;;0.40;0.30;;;11.90;99.90;;;;;;5117850;28;20435;-74
2022/09/28 10:42:22;;;;;;;0.43;0.43;;;11.90;99.90;;;;;;5117855;28;20483;-74
2022/09/28 10:44:53;;;;;;;0.50;0.30;;;11.80;99.90;;;;;;5117697;28;20471;-74
2022/09/28 10:47:25;;;;;;;0.30;0.30;;;11.80;99.90;;;;;;5117746;28;20447;-74
2022/09/28 10:49:54;;;;;;;0.30;0.30;;;11.90;99.90;;;;;;5117735;28;20500;-74
2022/09/28 10:52:38;;;;;;;0.30;0.30;;;11.90;99.90;;;;;;5117844;28;20436;-74
2022/09/28 10:55:28;;;;;;;0.43;0.43;;;11.90;99.90;;;;;;5117541;28;20471;-74
2022/09/28 10:57:55;;;;;;;0.43;0.43;;;11.90;99.90;;;;;;5117257;28;20903;-74
2022/09/28 11:00:34;;;;;;;0.37;0.30;;;12.00;99.90;;;;;;5117759;28;20431;-74
2022/09/28 11:03:03;;;;;;;0.83;0.40;;;12.10;99.90;;;;;;5117369;28;20419;-74
2022/09/28 11:05:31;;;;;;;0.30;0.30;;;12.10;99.90;;;;;;5117327;28;20438;-74
2022/09/28 11:08:02;;;;;;;0.40;0.30;;;12.10;99.90;;;;;;5117427;28;20537;-74
2022/09/28 11:10:31;;;;;;;0.30;0.30;;;12.20;99.90;;;;;;5116981;28;20998;-74
2022/09/28 11:12:59;;;;;;;1.70;0.53;;;12.20;99.90;;;;;;5117123;28;20504;-74
2022/09/28 11:15:29;;;;;;;2.13;0.30;;;12.10;99.90;;;;;;5117196;28;20496;-74
2022/09/28 11:17:56;;;;;;;0.30;0.30;;;12.20;99.90;;;;;;5117049;28;20478;-74
2022/09/28 11:20:34;;;;;;;0.30;0.30;;;12.20;99.90;;;;;;5116774;28;20458;-74
2022/09/28 11:23:20;;;;;;;0.40;0.30;;;12.30;99.90;;;;;;5116667;28;20529;-74
2022/09/28 11:25:58;;;;;;;0.40;0.30;;;12.30;99.90;;;;;;5116709;28;20196;-73
2022/09/28 11:28:32;;;;;;;0.40;0.30;;;12.30;99.90;;;;;;5115989;28;20478;-74
2022/09/28 11:31:00;;;;;;;0.37;0.30;;;12.40;99.90;;;;;;5115654;28;20431;-74
2022/09/28 11:33:31;;;;;;;0.40;0.30;;;12.20;99.90;;;;;;5115224;28;20478;-74
2022/09/28 11:36:09;;;;;;;1.17;0.40;;;12.10;99.90;;;;;;5115521;28;20434;-75
2022/09/28 11:38:40;;;;;;;0.30;0.30;;;12.10;99.90;;;;;;5115823;28;20427;-74
2022/09/28 11:41:20;;;;;;;0.30;0.30;;;12.10;99.90;;;;;;5116285;28;20439;-74
2022/09/28 11:44:04;;;;;;;0.40;0.40;;;12.10;99.90;;;;;;5115398;28;20837;-74
2022/09/28 11:46:39;;;;;;;0.30;0.30;;;12.00;99.90;;;;;;5115058;28;20431;-74
2022/09/28 11:49:16;;;;;;;0.30;0.30;;;12.00;99.90;;;;;;5115401;28;20423;-74
2022/09/28 11:51:47;;;;;;;0.30;0.30;;;12.10;99.90;;;;;;5115041;28;20799;-74
2022/09/28 11:54:21;;;;;;;0.60;0.40;;;12.10;99.90;;;;;;5116089;28;20468;-74
2022/09/28 11:56:50;;;;;;;0.40;0.33;;;12.20;99.90;;;;;;5114862;28;20827;-74
2022/09/28 11:59:26;;;;;;;0.40;0.30;;;12.30;99.90;;;;;;5115215;28;20451;-74
2022/09/28 12:01:57;;;;;;;0.30;0.30;;;12.30;99.90;;;;;;5115227;28;20435;-74
2022/09/28 12:04:31;;;;;;;0.80;0.30;;;12.30;99.90;;;;;;5115077;28;20465;-74
2022/09/28 12:07:04;;;;;;;0.30;0.30;;;12.30;99.90;;;;;;5115131;28;20430;-74
2022/09/28 12:09:37;;;;;;;0.40;0.40;;;12.30;99.90;;;;;;5115773;28;20436;-74
2022/09/28 12:12:14;;;;;;;0.30;0.30;;;12.30;99.90;;;;;;5115063;28;20439;-74
2022/09/28 12:14:41;;;;;;;0.30;0.30;;;12.30;99.90;;;;;;5114895;28;20466;-74
2022/09/28 12:17:23;;;;;;;1.00;0.50;;;12.30;99.90;;;;;;5114797;28;20497;-74
2022/09/28 12:19:55;;;;;;;0.40;0.30;;;12.30;99.90;;;;;;5115421;28;20489;-74
2022/09/28 12:22:29;;;;;;;0.50;0.30;;;12.20;99.90;;;;;;5114846;28;20480;-74
2022/09/28 12:24:57;;;;;;;0.30;0.30;;;12.30;99.90;;;;;;5114716;28;20462;-74
2022/09/28 12:29:54;;;;;;;0.40;0.37;;;12.30;99.90;;;;;;5091540;28;20606;-73
2022/09/28 12:32:28;;;;;;;0.33;0.30;;;12.30;99.90;;;;;;5090955;28;20431;-73
2022/09/28 12:34:56;;;;;;;0.30;0.30;;;12.30;99.90;;;;;;5090864;28;20467;-73
2022/09/28 12:37:34;;;;;;;0.30;0.30;;;12.30;99.90;;;;;;5090534;28;20441;-73
2022/09/28 12:40:28;;;;;;;0.30;0.30;;;12.40;99.90;;;;;;5090845;28;20428;-73
2022/09/28 12:43:09;;;;;;;0.87;0.40;;;12.40;99.90;;;;;;5090718;28;20436;-73
2022/09/28 12:45:53;;;;;;;0.50;0.40;;;12.40;99.90;;;;;;5090776;28;20482;-74
2022/09/28 12:48:41;;;;;;;1.67;0.43;;;12.30;99.90;;;;;;5090599;28;20468;-73
2022/09/28 12:51:21;;;;;;;0.67;0.37;;;12.40;99.90;;;;;;5090637;28;20432;-78
2022/09/28 12:54:10;;;;;;;0.57;0.57;;;12.40;99.90;;;;;;5090207;28;20999;-76
2022/09/28 12:56:42;;;;;;;0.30;0.30;;;12.50;99.90;;;;;;5090596;28;20448;-79
2022/09/28 12:59:19;;;;;;;0.30;0.30;;;12.50;99.90;;;;;;5090518;28;20436;-79
2022/09/28 13:02:13;;;;;;;1.03;0.50;;;12.60;99.90;;;;;;5090480;28;20425;-79
2022/09/28 13:05:04;;;;;;;0.57;0.40;;;12.60;99.90;;;;;;5087722;28;20572;-79
2022/09/28 13:07:41;;;;;;;0.40;0.30;;;12.60;99.90;;;;;;5090253;28;20448;-79
2022/09/28 13:10:16;;;;;;;0.30;0.30;;;12.60;99.90;;;;;;5090266;28;20437;-79
2022/09/28 13:12:56;;;;;;;0.40;0.40;;;12.70;99.90;;;;;;5089971;28;20424;-79
2022/09/28 13:15:43;;;;;;;0.40;0.30;;;12.60;99.90;;;;;;5089857;28;20786;-79
2022/09/28 13:18:19;;;;;;;0.30;0.30;;;12.70;99.90;;;;;;5090417;28;20799;-79
2022/09/28 13:21:05;;;;;;;1.13;0.47;;;12.70;99.90;;;;;;5089804;28;20435;-79
2022/09/28 13:23:37;;;;;;;0.30;0.30;;;12.70;99.90;;;;;;5089950;28;20475;-79
2022/09/28 13:26:13;;;;;;;0.40;0.40;;;12.70;99.90;;;;;;5089622;28;20928;-79